createdAt,value
2018-05-12T00:02:09.564Z,9.17
2018-05-12T00:04:37.865Z,8.90
2018-05-12T00:07:06.126Z,8.17
2018-05-12T00:09:34.370Z,8.50
2018-05-12T00:12:03.420Z,8.73
2018-05-12T00:14:31.701Z,10.00
2018-05-12T00:17:00.011Z,9.47
2018-05-12T00:19:28.272Z,8.87
2018-05-12T00:21:56.521Z,8.80
2018-05-12T00:24:24.782Z,9.47
2018-05-12T00:26:53.027Z,10.00
2018-05-12T00:29:22.039Z,10.07
2018-05-12T00:31:50.350Z,9.43
2018-05-12T00:34:18.607Z,10.27
2018-05-12T00:36:46.888Z,10.47
2018-05-12T00:39:15.164Z,11.10
2018-05-12T00:41:43.435Z,10.67
2018-05-12T00:44:11.688Z,10.27
2018-05-12T00:46:39.981Z,10.60
2018-05-12T00:49:08.269Z,11.17
2018-05-12T00:51:36.516Z,11.57
2018-05-12T00:54:04.772Z,11.90
2018-05-12T00:56:33.803Z,11.90
2018-05-12T00:59:02.085Z,11.60
2018-05-12T01:01:30.377Z,11.57
2018-05-12T01:03:58.636Z,11.57
2018-05-12T01:06:26.903Z,12.33
2018-05-12T01:08:55.188Z,11.40
2018-05-12T01:11:23.457Z,11.90
2018-05-12T01:13:51.741Z,11.50
2018-05-12T01:16:20.023Z,13.47
2018-05-12T01:18:48.387Z,12.53
2018-05-12T01:21:16.635Z,12.40
2018-05-12T01:23:44.896Z,12.53
2018-05-12T01:26:13.926Z,11.83
2018-05-12T01:28:42.187Z,12.10
2018-05-12T01:31:10.500Z,13.20
2018-05-12T01:33:38.764Z,12.83
2018-05-12T01:36:07.036Z,16.67
2018-05-12T01:38:35.317Z,15.60
2018-05-12T01:41:03.569Z,15.40
2018-05-12T01:43:31.868Z,15.97
2018-05-12T01:46:00.131Z,16.93
2018-05-12T01:48:28.415Z,16.07
2018-05-12T01:50:56.687Z,16.23
2018-05-12T01:53:24.971Z,17.10
2018-05-12T01:55:53.244Z,16.07
2018-05-12T01:58:21.520Z,16.37
2018-05-12T02:00:49.804Z,16.80
2018-05-12T02:03:18.066Z,17.67
2018-05-12T02:05:46.307Z,16.70
2018-05-12T02:08:14.621Z,17.03
2018-05-12T02:10:42.880Z,16.00
2018-05-12T02:13:11.149Z,16.73
2018-05-12T02:15:39.398Z,17.93
2018-05-12T02:18:08.540Z,16.53
2018-05-12T02:20:39.885Z,16.20
2018-05-12T02:23:08.156Z,16.33
2018-05-12T02:25:36.444Z,15.83
2018-05-12T02:28:04.725Z,15.60
2018-05-12T02:30:32.984Z,16.23
2018-05-12T02:33:01.232Z,15.83
2018-05-12T02:35:29.541Z,16.63
2018-05-12T02:37:57.807Z,15.93
2018-05-12T02:40:26.063Z,16.40
2018-05-12T02:42:54.367Z,16.80
2018-05-12T02:45:22.623Z,16.17
2018-05-12T02:47:50.919Z,16.17
2018-05-12T02:50:19.191Z,17.37
2018-05-12T02:52:47.463Z,18.30
2018-05-12T02:55:15.734Z,16.77
2018-05-12T02:57:43.989Z,17.43
2018-05-12T03:00:12.243Z,20.33
2018-05-12T03:02:41.289Z,19.00
2018-05-12T03:05:09.569Z,19.60
2018-05-12T03:07:37.831Z,21.10
2018-05-12T03:10:06.097Z,21.80
2018-05-12T03:12:34.357Z,22.30
2018-05-12T03:15:02.608Z,24.67
2018-05-12T03:17:31.631Z,23.43
2018-05-12T03:19:59.908Z,23.80
2018-05-12T03:22:29.946Z,25.03
2018-05-12T03:24:58.221Z,26.77
2018-05-12T03:27:26.477Z,24.07
2018-05-12T03:29:54.791Z,25.73
2018-05-12T03:32:23.035Z,24.90
2018-05-12T03:34:51.301Z,24.63
2018-05-12T03:37:19.547Z,24.57
2018-05-12T03:39:48.604Z,25.57
2018-05-12T03:42:16.861Z,25.60
2018-05-12T03:44:45.117Z,26.10
2018-05-12T03:47:13.375Z,26.23
2018-05-12T03:49:42.449Z,25.63
2018-05-12T03:52:10.832Z,25.47
2018-05-12T03:54:39.176Z,25.57
2018-05-12T03:57:07.442Z,24.67
2018-05-12T03:59:35.695Z,24.53
2018-05-12T04:02:03.952Z,24.93
2018-05-12T04:04:44.880Z,24.77
2018-05-12T04:07:25.788Z,25.27
2018-05-12T04:10:06.713Z,24.80
2018-05-12T04:12:38.693Z,25.20
2018-05-12T04:15:06.953Z,25.07
2018-05-12T04:17:35.217Z,25.53
2018-05-12T04:20:03.473Z,26.87
2018-05-12T04:22:31.742Z,24.93
2018-05-12T04:24:59.996Z,26.23
2018-05-12T04:27:29.016Z,25.67
2018-05-12T04:29:57.325Z,26.30
2018-05-12T04:32:25.597Z,24.37
2018-05-12T04:34:53.845Z,25.37
2018-05-12T04:37:22.152Z,24.87
2018-05-12T04:39:50.395Z,24.37
2018-05-12T04:42:18.711Z,24.37
2018-05-12T04:44:46.970Z,24.23
2018-05-12T04:47:15.239Z,23.23
2018-05-12T04:49:44.732Z,23.00
2018-05-12T04:52:13.736Z,25.47
2018-05-12T04:54:42.015Z,23.40
2018-05-12T04:57:10.297Z,25.73
2018-05-12T04:59:38.553Z,24.93
2018-05-12T05:02:06.878Z,24.70
2018-05-12T05:04:35.120Z,24.53
2018-05-12T05:07:03.375Z,26.00
2018-05-12T05:09:31.619Z,26.37
2018-05-12T05:12:00.654Z,26.73
2018-05-12T05:14:28.972Z,25.73
2018-05-12T05:16:57.322Z,23.83
2018-05-12T05:19:25.626Z,22.93
2018-05-12T05:21:53.850Z,24.33
2018-05-12T05:24:22.152Z,23.00
2018-05-12T05:26:50.411Z,24.43
2018-05-12T05:29:18.663Z,24.33
2018-05-12T05:31:46.965Z,25.10
2018-05-12T05:34:15.243Z,25.10
2018-05-12T05:36:43.503Z,24.73
2018-05-12T05:39:11.799Z,23.87
2018-05-12T05:41:40.120Z,21.40
2018-05-12T05:44:08.349Z,21.63
2018-05-12T05:46:36.637Z,21.50
2018-05-12T05:49:04.996Z,21.30
2018-05-12T05:51:33.280Z,20.47
2018-05-12T05:54:01.534Z,20.53
2018-05-12T05:56:29.807Z,19.93
2018-05-12T05:58:58.449Z,19.97
2018-05-12T06:01:26.681Z,20.90
2018-05-12T06:03:54.941Z,22.27
2018-05-12T06:06:23.252Z,23.77
2018-05-12T06:08:51.621Z,22.70
2018-05-12T06:11:19.867Z,23.10
2018-05-12T06:13:48.173Z,23.13
2018-05-12T06:16:16.439Z,25.57
2018-05-12T06:18:44.709Z,25.13
2018-05-12T06:21:13.005Z,27.90
2018-05-12T06:23:41.274Z,27.87
2018-05-12T06:26:09.519Z,27.10
2018-05-12T06:28:37.833Z,26.13
2018-05-12T06:31:06.087Z,27.93
2018-05-12T06:33:34.359Z,28.67
2018-05-12T06:36:02.650Z,28.27
2018-05-12T06:38:30.937Z,27.90
2018-05-12T06:40:59.189Z,28.30
2018-05-12T06:43:27.573Z,27.73
2018-05-12T06:45:55.848Z,27.93
2018-05-12T06:48:24.109Z,28.10
2018-05-12T06:50:52.404Z,26.87
2018-05-12T06:53:20.669Z,26.77
2018-05-12T06:55:48.948Z,26.00
2018-05-12T06:58:17.211Z,27.23
2018-05-12T07:00:45.472Z,26.07
2018-05-12T07:03:13.883Z,28.13
2018-05-12T07:05:42.867Z,27.63
2018-05-12T07:08:11.140Z,28.30
2018-05-12T07:10:39.428Z,29.43
2018-05-12T07:13:07.704Z,27.57
2018-05-12T07:15:36.908Z,26.80
2018-05-12T07:18:05.163Z,27.70
2018-05-12T07:20:33.432Z,28.33
2018-05-12T07:23:01.727Z,28.40
2018-05-12T07:25:30.209Z,27.97
2018-05-12T07:27:58.477Z,28.03
2018-05-12T07:30:26.765Z,27.33
2018-05-12T07:32:55.021Z,27.07
2018-05-12T07:35:23.422Z,26.37
2018-05-12T07:37:51.731Z,27.33
2018-05-12T07:40:19.973Z,27.70
2018-05-12T07:42:48.231Z,29.17
2018-05-12T07:45:16.894Z,27.80
2018-05-12T07:47:46.484Z,29.73
2018-05-12T07:50:14.792Z,28.23
2018-05-12T07:52:43.055Z,30.83
2018-05-12T07:55:11.347Z,29.83
2018-05-12T07:57:39.733Z,29.70
2018-05-12T08:00:07.980Z,28.90
2018-05-12T08:02:36.233Z,31.20
2018-05-12T08:05:05.548Z,34.07
2018-05-12T08:07:33.818Z,34.33
2018-05-12T08:10:02.135Z,35.17
2018-05-12T08:12:30.392Z,32.87
2018-05-12T08:14:58.685Z,31.73
2018-05-12T08:17:26.947Z,33.07
2018-05-12T08:19:55.203Z,33.73
2018-05-12T08:22:23.507Z,33.77
2018-05-12T08:24:51.788Z,33.97
2018-05-12T08:27:20.045Z,34.53
2018-05-12T08:29:48.815Z,36.47
2018-05-12T08:32:17.076Z,37.93
2018-05-12T08:34:46.123Z,34.67
2018-05-12T08:37:14.379Z,38.23
2018-05-12T08:39:42.672Z,38.23
2018-05-12T08:42:10.923Z,36.17
2018-05-12T08:44:39.222Z,36.47
2018-05-12T08:47:07.487Z,35.67
2018-05-12T08:49:35.736Z,35.63
2018-05-12T08:52:04.013Z,35.87
2018-05-12T08:54:32.321Z,38.20
2018-05-12T08:57:00.609Z,36.67
2018-05-12T08:59:28.971Z,36.23
2018-05-12T09:01:57.248Z,37.63
2018-05-12T09:04:25.541Z,37.03
2018-05-12T09:06:53.791Z,36.33
2018-05-12T09:09:24.029Z,35.83
2018-05-12T09:11:52.301Z,33.37
2018-05-12T09:14:20.591Z,34.67
2018-05-12T09:16:48.866Z,32.13
2018-05-12T09:19:17.280Z,31.13
2018-05-12T09:21:45.541Z,33.47
2018-05-12T09:24:13.977Z,33.27
2018-05-12T09:26:42.261Z,35.17
2018-05-12T09:29:10.503Z,37.13
2018-05-12T09:31:38.759Z,38.20
2018-05-12T09:34:07.780Z,39.50
2018-05-12T09:36:36.044Z,39.17
2018-05-12T09:39:04.309Z,41.17
2018-05-12T09:41:33.338Z,39.77
2018-05-12T09:44:01.601Z,40.33
2018-05-12T09:46:30.754Z,41.40
2018-05-12T09:48:59.784Z,40.07
2018-05-12T09:51:28.079Z,40.07
2018-05-12T09:53:56.335Z,38.30
2018-05-12T09:56:24.583Z,37.73
2018-05-12T09:58:53.603Z,38.10
2018-05-12T10:01:21.895Z,37.53
2018-05-12T10:03:50.177Z,36.30
2018-05-12T10:06:18.451Z,36.93
2018-05-12T10:08:46.715Z,37.50
2018-05-12T10:11:14.995Z,38.00
2018-05-12T10:13:43.257Z,39.57
2018-05-12T10:16:12.478Z,37.57
2018-05-12T10:18:40.743Z,36.37
2018-05-12T10:21:09.033Z,36.70
2018-05-12T10:23:37.291Z,35.30
2018-05-12T10:26:05.611Z,35.03
2018-05-12T10:28:33.844Z,35.93
2018-05-12T10:31:02.129Z,34.37
2018-05-12T10:33:30.396Z,35.53
2018-05-12T10:35:58.652Z,33.33
2018-05-12T10:38:27.295Z,34.97
2018-05-12T10:40:55.530Z,34.33
2018-05-12T10:43:23.787Z,34.10
2018-05-12T10:45:52.035Z,36.90
2018-05-12T10:48:21.063Z,35.13
2018-05-12T10:50:49.316Z,33.33
2018-05-12T10:53:17.590Z,34.70
2018-05-12T10:55:46.621Z,33.90
2018-05-12T10:58:14.901Z,32.13
2018-05-12T11:00:43.157Z,32.10
2018-05-12T11:03:11.588Z,33.10
2018-05-12T11:05:39.829Z,34.50
2018-05-12T11:08:08.275Z,33.63
2018-05-12T11:10:37.275Z,34.80
2018-05-12T11:13:05.577Z,33.90
2018-05-12T11:15:33.883Z,33.33
2018-05-12T11:18:02.216Z,35.07
2018-05-12T11:20:30.471Z,31.93
2018-05-12T11:22:58.771Z,32.00
2018-05-12T11:25:27.035Z,32.87
2018-05-12T11:27:56.287Z,31.37
2018-05-12T11:30:24.633Z,29.80
2018-05-12T11:32:53.167Z,29.77
2018-05-12T11:35:22.209Z,30.07
2018-05-12T11:37:50.452Z,30.77
2018-05-12T11:40:18.744Z,30.03
2018-05-12T11:42:47.473Z,31.33
2018-05-12T11:45:15.807Z,30.40
2018-05-12T11:47:44.093Z,30.80
2018-05-12T11:50:12.504Z,29.60
2018-05-12T11:52:40.739Z,29.77
2018-05-12T11:55:09.157Z,30.37
2018-05-12T11:57:37.380Z,30.60
2018-05-12T12:00:05.664Z,29.13
2018-05-12T12:02:34.885Z,27.93
2018-05-12T12:05:03.112Z,29.23
2018-05-12T12:07:31.416Z,29.80
2018-05-12T12:09:59.689Z,29.63
2018-05-12T12:12:27.927Z,28.97
2018-05-12T12:14:56.960Z,27.77
2018-05-12T12:17:25.225Z,26.43
2018-05-12T12:19:53.475Z,26.27
2018-05-12T12:22:21.737Z,26.67
2018-05-12T12:24:50.789Z,28.20
2018-05-12T12:27:19.070Z,30.00
2018-05-12T12:29:47.327Z,29.07
2018-05-12T12:32:15.579Z,29.33
2018-05-12T12:34:43.889Z,30.13
2018-05-12T12:37:12.165Z,29.27
2018-05-12T12:39:40.441Z,29.37
2018-05-12T12:42:08.702Z,29.43
2018-05-12T12:44:36.957Z,29.33
2018-05-12T12:47:05.269Z,30.20
2018-05-12T12:49:33.513Z,29.20
2018-05-12T12:52:01.764Z,29.67
2018-05-12T12:54:30.784Z,28.10
2018-05-12T12:56:59.035Z,30.40
2018-05-12T12:59:28.055Z,29.77
2018-05-12T13:01:56.538Z,31.03
2018-05-12T13:04:24.825Z,29.43
2018-05-12T13:06:53.094Z,29.40
2018-05-12T13:09:21.353Z,29.80
2018-05-12T13:11:49.611Z,29.87
2018-05-12T13:14:19.362Z,29.43
2018-05-12T13:16:47.746Z,28.57
2018-05-12T13:19:16.016Z,29.57
2018-05-12T13:21:44.304Z,29.27
2018-05-12T13:24:12.659Z,28.70
2018-05-12T13:26:40.915Z,29.63
2018-05-12T13:29:09.167Z,27.17
2018-05-12T13:31:38.210Z,29.13
2018-05-12T13:34:06.461Z,29.13
2018-05-12T13:36:34.722Z,29.90
2018-05-12T13:39:03.403Z,28.93
2018-05-12T13:41:32.416Z,28.37
2018-05-12T13:44:00.687Z,29.27
2018-05-12T13:46:29.713Z,29.17
2018-05-12T13:48:57.959Z,30.00
2018-05-12T13:51:26.262Z,27.53
2018-05-12T13:53:54.524Z,27.60
2018-05-12T13:56:22.778Z,25.73
2018-05-12T13:58:51.791Z,27.33
2018-05-12T14:01:20.191Z,26.50
2018-05-12T14:03:48.451Z,27.47
2018-05-12T14:06:16.704Z,27.37
2018-05-12T14:08:45.367Z,26.47
2018-05-12T14:11:14.545Z,26.17
2018-05-12T14:13:42.779Z,25.73
2018-05-12T14:16:11.059Z,25.13
2018-05-12T14:18:39.337Z,25.27
2018-05-12T14:21:08.026Z,27.83
2018-05-12T14:23:36.396Z,25.50
2018-05-12T14:26:04.643Z,27.50
2018-05-12T14:28:32.984Z,26.57
2018-05-12T14:31:01.221Z,25.97
2018-05-12T14:33:29.480Z,26.93
2018-05-12T14:35:57.810Z,25.17
2018-05-12T14:38:26.054Z,27.80
2018-05-12T14:40:54.326Z,27.00
2018-05-12T14:43:22.576Z,26.90
2018-05-12T14:45:50.925Z,26.57
2018-05-12T14:48:19.144Z,24.43
2018-05-12T14:50:47.397Z,24.60
2018-05-12T14:53:15.696Z,24.93
2018-05-12T14:55:43.985Z,24.57
2018-05-12T14:58:12.239Z,24.63
2018-05-12T15:00:40.532Z,24.10
2018-05-12T15:03:08.944Z,23.93
2018-05-12T15:05:37.168Z,24.80
2018-05-12T15:08:05.420Z,23.13
2018-05-12T15:10:33.677Z,22.70
2018-05-12T15:13:02.692Z,21.63
2018-05-12T15:15:31.001Z,21.30
2018-05-12T15:17:59.265Z,21.90
2018-05-12T15:20:27.511Z,21.73
2018-05-12T15:22:55.825Z,21.43
2018-05-12T15:25:24.105Z,21.90
2018-05-12T15:27:52.360Z,23.30
2018-05-12T15:30:20.631Z,22.57
2018-05-12T15:32:48.878Z,26.30
2018-05-12T15:35:17.897Z,23.23
2018-05-12T15:37:46.157Z,22.47
2018-05-12T15:40:14.409Z,22.90
2018-05-12T15:42:43.420Z,20.07
2018-05-12T15:45:12.465Z,21.80
2018-05-12T15:47:40.869Z,22.33
2018-05-12T15:50:09.104Z,21.47
2018-05-12T15:52:37.348Z,23.23
2018-05-12T15:55:05.651Z,22.17
2018-05-12T15:57:33.928Z,22.90
2018-05-12T16:00:02.209Z,22.30
2018-05-12T16:02:30.486Z,21.40
2018-05-12T16:04:58.745Z,20.30
2018-05-12T16:07:27.033Z,19.57
2018-05-12T16:09:55.293Z,21.50
2018-05-12T16:12:23.608Z,21.57
2018-05-12T16:14:52.573Z,21.43
2018-05-12T16:17:20.858Z,22.80
2018-05-12T16:19:49.129Z,22.57
2018-05-12T16:22:17.405Z,22.10
2018-05-12T16:24:45.658Z,22.37
2018-05-12T16:27:13.952Z,22.00
2018-05-12T16:29:42.227Z,22.37
2018-05-12T16:32:10.484Z,21.20
2018-05-12T16:34:38.744Z,22.07
2018-05-12T16:37:07.768Z,20.53
2018-05-12T16:39:36.054Z,21.53
2018-05-12T16:42:04.309Z,21.47
2018-05-12T16:44:32.571Z,21.73
2018-05-12T16:47:00.871Z,21.60
2018-05-12T16:49:29.147Z,22.87
2018-05-12T16:51:57.403Z,21.87
2018-05-12T16:54:25.696Z,20.17
2018-05-12T16:56:53.999Z,21.20
2018-05-12T16:59:22.225Z,19.97
2018-05-12T17:01:50.532Z,21.20
2018-05-12T17:04:18.790Z,21.57
2018-05-12T17:06:47.075Z,21.10
2018-05-12T17:09:15.361Z,21.43
2018-05-12T17:11:43.617Z,21.27
2018-05-12T17:14:11.863Z,22.50
2018-05-12T17:16:40.883Z,21.73
2018-05-12T17:19:09.127Z,21.20
2018-05-12T17:21:38.159Z,21.67
2018-05-12T17:24:06.446Z,20.70
2018-05-12T17:26:35.367Z,20.93
2018-05-12T17:29:03.702Z,20.77
2018-05-12T17:31:31.964Z,21.67
2018-05-12T17:34:00.263Z,21.97
2018-05-12T17:36:28.637Z,22.57
2018-05-12T17:38:56.890Z,22.17
2018-05-12T17:41:25.151Z,21.47
2018-05-12T17:43:53.465Z,21.47
2018-05-12T17:46:21.740Z,21.37
2018-05-12T17:48:50.018Z,20.83
2018-05-12T17:51:18.359Z,21.67
2018-05-12T17:53:46.652Z,21.50
2018-05-12T17:56:14.952Z,23.77
2018-05-12T17:58:43.225Z,21.87
2018-05-12T18:01:11.491Z,23.03
2018-05-12T18:03:39.739Z,24.03
2018-05-12T18:06:08.005Z,23.00
2018-05-12T18:08:37.015Z,23.60
2018-05-12T18:11:05.307Z,23.43
2018-05-12T18:13:33.556Z,23.40
2018-05-12T18:16:01.859Z,23.17
2018-05-12T18:18:30.145Z,23.17
2018-05-12T18:20:58.463Z,23.07
2018-05-12T18:23:26.686Z,23.10
2018-05-12T18:25:54.963Z,23.63
2018-05-12T18:28:23.219Z,23.93
2018-05-12T18:30:51.516Z,23.07
2018-05-12T18:33:19.887Z,22.83
2018-05-12T18:35:48.139Z,23.07
2018-05-12T18:38:16.391Z,23.33
2018-05-12T18:40:45.414Z,23.20
2018-05-12T18:43:13.716Z,24.83
2018-05-12T18:45:42.000Z,25.07
2018-05-12T18:48:10.247Z,23.33
2018-05-12T18:50:38.566Z,21.73
2018-05-12T18:53:06.916Z,23.17
2018-05-12T18:55:35.170Z,23.70
2018-05-12T18:58:03.473Z,23.77
2018-05-12T19:00:31.739Z,23.97
2018-05-12T19:03:00.009Z,24.53
2018-05-12T19:05:28.265Z,23.63
2018-05-12T19:07:56.520Z,22.63
2018-05-12T19:10:25.556Z,23.90
2018-05-12T19:12:53.830Z,22.83
2018-05-12T19:15:22.081Z,23.20
2018-05-12T19:17:50.385Z,21.63
2018-05-12T19:20:18.660Z,21.50
2018-05-12T19:22:46.931Z,20.83
2018-05-12T19:25:15.179Z,20.47
2018-05-12T19:27:43.442Z,20.80
2018-05-12T19:30:12.479Z,20.87
2018-05-12T19:32:40.747Z,21.17
2018-05-12T19:35:09.853Z,20.60
2018-05-12T19:37:39.133Z,20.57
2018-05-12T19:40:07.389Z,22.83
2018-05-12T19:42:35.700Z,21.40
2018-05-12T19:45:03.947Z,21.90
2018-05-12T19:47:32.230Z,21.57
2018-05-12T19:50:00.637Z,21.60
2018-05-12T19:52:28.910Z,21.50
2018-05-12T19:54:57.170Z,19.57
2018-05-12T19:57:25.421Z,22.13
2018-05-12T19:59:53.735Z,20.80
2018-05-12T20:02:21.988Z,22.80
2018-05-12T20:04:51.103Z,21.63
2018-05-12T20:07:19.824Z,22.80
2018-05-12T20:09:48.145Z,21.53
2018-05-12T21:34:20.761Z,24.27
2018-05-12T21:36:49.022Z,24.37
2018-05-12T21:39:17.277Z,22.27
2018-05-12T21:41:46.296Z,21.40
2018-05-12T21:44:14.662Z,22.30
2018-05-12T21:46:42.865Z,21.47
2018-05-12T21:49:11.124Z,21.30
2018-05-12T21:51:39.403Z,20.73
2018-05-12T21:54:07.675Z,21.03
2018-05-12T21:56:35.933Z,21.27
2018-05-12T21:59:04.260Z,20.77
2018-05-12T22:01:32.471Z,21.17
2018-05-12T22:04:02.652Z,20.40
2018-05-12T22:06:30.889Z,20.47
2018-05-12T22:08:59.136Z,22.60
2018-05-12T22:11:28.167Z,23.17
2018-05-12T22:13:56.420Z,22.37
2018-05-12T22:16:24.736Z,22.93
2018-05-12T22:18:52.992Z,23.43
2018-05-12T22:21:21.244Z,22.80
2018-05-12T22:23:49.492Z,22.57
2018-05-12T22:26:17.755Z,23.20
2018-05-12T22:28:46.095Z,22.37
2018-05-12T22:31:14.346Z,22.83
2018-05-12T22:33:42.591Z,23.10
2018-05-12T22:36:10.854Z,25.93
2018-05-12T22:38:39.105Z,25.57
2018-05-12T22:41:07.359Z,23.90
2018-05-12T22:43:35.660Z,25.33
2018-05-12T22:46:03.912Z,27.83
2018-05-12T22:48:32.169Z,29.93
2018-05-12T22:51:00.481Z,31.00
2018-05-12T22:53:28.749Z,30.47
2018-05-12T22:55:57.001Z,30.73
2018-05-12T22:58:25.309Z,29.43
2018-05-12T23:00:53.575Z,30.70
2018-05-12T23:03:21.831Z,30.70
2018-05-12T23:05:50.704Z,29.63
2018-05-12T23:08:18.979Z,31.33
2018-05-12T23:10:48.025Z,31.30
2018-05-12T23:13:16.349Z,31.97
2018-05-12T23:15:45.358Z,33.77
2018-05-12T23:18:13.620Z,29.70
2018-05-12T23:20:42.656Z,32.40
2018-05-12T23:23:10.911Z,31.90
2018-05-12T23:25:39.210Z,29.10
2018-05-12T23:28:07.471Z,29.97
2018-05-12T23:30:35.757Z,29.97
2018-05-12T23:33:04.023Z,29.67
2018-05-12T23:35:32.267Z,29.33
2018-05-12T23:38:00.579Z,28.77
2018-05-12T23:40:28.833Z,30.07
2018-05-12T23:42:57.123Z,28.93
2018-05-12T23:45:25.377Z,32.10
2018-05-12T23:47:53.646Z,31.80
2018-05-12T23:50:22.651Z,30.40
2018-05-12T23:52:50.911Z,30.00
2018-05-12T23:55:19.172Z,29.70
2018-05-12T23:57:48.196Z,30.07
